createdAt,value
2018-05-17T00:00:35.710Z,55.04
2018-05-17T00:03:08.265Z,55.20
2018-05-17T00:05:40.869Z,55.04
2018-05-17T00:08:13.394Z,55.69
2018-05-17T00:10:45.933Z,55.12
2018-05-17T00:13:18.437Z,55.29
2018-05-17T00:15:50.961Z,55.38
2018-05-17T00:18:23.464Z,56.08
2018-05-17T00:20:56.002Z,55.92
2018-05-17T00:23:28.508Z,55.80
2018-05-17T00:26:01.036Z,56.12
2018-05-17T00:28:33.550Z,56.06
2018-05-17T00:31:07.367Z,55.98
2018-05-17T00:33:39.871Z,56.29
2018-05-17T00:36:12.404Z,56.39
2018-05-17T00:38:44.935Z,56.57
2018-05-17T00:41:17.478Z,56.77
2018-05-17T00:43:49.980Z,57.03
2018-05-17T00:46:22.511Z,56.70
2018-05-17T00:48:55.029Z,56.85
2018-05-17T00:51:27.557Z,56.85
2018-05-17T00:54:00.072Z,57.08
2018-05-17T00:56:32.595Z,57.38
2018-05-17T00:59:05.294Z,57.42
2018-05-17T01:01:38.567Z,57.51
2018-05-17T01:04:11.132Z,57.52
2018-05-17T01:06:43.791Z,57.75
2018-05-17T01:09:16.356Z,57.75
2018-05-17T01:11:48.898Z,58.09
2018-05-17T01:14:21.420Z,57.98
2018-05-17T01:16:54.008Z,58.17
2018-05-17T01:19:26.508Z,58.33
2018-05-17T01:21:59.031Z,58.22
2018-05-17T01:24:31.547Z,58.40
2018-05-17T01:27:04.081Z,58.31
2018-05-17T01:29:36.615Z,58.49
2018-05-17T01:32:09.173Z,58.57
2018-05-17T01:34:41.716Z,58.58
2018-05-17T01:37:26.094Z,58.59
2018-05-17T01:39:58.606Z,58.30
2018-05-17T01:42:31.133Z,58.74
2018-05-17T01:45:03.640Z,58.78
2018-05-17T01:47:36.795Z,58.74
2018-05-17T01:50:09.340Z,58.84
2018-05-17T01:52:41.904Z,58.81
2018-05-17T01:55:14.434Z,59.07
2018-05-17T01:57:46.971Z,58.64
2018-05-17T02:00:19.503Z,58.62
2018-05-17T02:02:52.021Z,58.62
2018-05-17T02:05:24.552Z,58.87
2018-05-17T02:07:57.064Z,58.90
2018-05-17T02:10:29.597Z,58.87
2018-05-17T02:13:02.113Z,58.94
2018-05-17T02:15:34.673Z,58.90
2018-05-17T02:18:07.323Z,59.34
2018-05-17T02:20:39.970Z,59.40
2018-05-17T02:23:12.712Z,59.34
2018-05-17T02:25:45.462Z,59.10
2018-05-17T02:28:17.963Z,59.19
2018-05-17T02:30:50.500Z,59.63
2018-05-17T02:33:23.018Z,59.62
2018-05-17T02:35:55.548Z,59.65
2018-05-17T02:38:28.055Z,59.19
2018-05-17T02:41:00.628Z,59.46
2018-05-17T02:43:33.142Z,59.60
2018-05-17T02:46:05.679Z,59.39
2018-05-17T02:48:38.210Z,59.40
2018-05-17T02:51:10.967Z,59.32
2018-05-17T02:53:44.015Z,59.33
2018-05-17T02:58:55.377Z,59.03
2018-05-17T03:01:27.894Z,59.11
2018-05-17T03:04:00.416Z,59.12
2018-05-17T03:06:32.934Z,59.37
2018-05-17T03:09:06.252Z,59.38
2018-05-17T03:11:38.924Z,59.41
2018-05-17T03:14:11.480Z,59.39
2018-05-17T03:16:44.071Z,59.43
2018-05-17T03:19:16.620Z,59.59
2018-05-17T03:21:49.160Z,59.69
2018-05-17T03:24:21.657Z,59.61
2018-05-17T03:26:54.177Z,59.83
2018-05-17T03:29:26.672Z,59.79
2018-05-17T03:31:59.203Z,59.61
2018-05-17T03:34:31.708Z,59.86
2018-05-17T03:37:04.229Z,59.72
2018-05-17T03:39:36.786Z,59.51
2018-05-17T03:42:09.648Z,59.69
2018-05-17T03:44:42.186Z,60.00
2018-05-17T03:47:15.092Z,59.97
2018-05-17T03:49:47.629Z,59.93
2018-05-17T03:52:20.160Z,59.81
2018-05-17T03:54:52.662Z,60.07
2018-05-17T03:57:25.201Z,59.67
2018-05-17T03:59:57.699Z,59.96
2018-05-17T04:02:41.945Z,59.97
2018-05-17T04:05:26.290Z,59.90
2018-05-17T04:07:58.813Z,59.63
2018-05-17T04:10:31.319Z,59.64
2018-05-17T04:13:03.845Z,59.41
2018-05-17T04:15:36.464Z,59.28
2018-05-17T04:18:09.337Z,59.28
2018-05-17T04:20:41.861Z,59.29
2018-05-17T04:23:14.396Z,59.08
2018-05-17T04:25:46.928Z,58.97
2018-05-17T04:28:19.456Z,58.95
2018-05-17T04:30:51.957Z,58.97
2018-05-17T04:33:24.488Z,59.07
2018-05-17T04:35:56.987Z,58.76
2018-05-17T04:38:29.518Z,58.30
2018-05-17T04:41:02.023Z,58.12
2018-05-17T04:43:34.650Z,57.89
2018-05-17T04:46:07.263Z,57.36
2018-05-17T04:48:39.877Z,57.18
2018-05-17T04:51:12.393Z,57.15
2018-05-17T04:53:45.054Z,56.82
2018-05-17T04:56:17.582Z,56.83
2018-05-17T04:58:50.112Z,56.87
2018-05-17T05:01:22.621Z,57.07
2018-05-17T05:03:55.152Z,56.90
2018-05-17T05:06:27.661Z,56.81
2018-05-17T05:09:00.187Z,56.52
2018-05-17T05:11:32.696Z,56.51
2018-05-17T05:14:05.607Z,55.97
2018-05-17T05:16:38.300Z,55.31
2018-05-17T05:19:10.890Z,54.99
2018-05-17T05:21:43.423Z,54.34
2018-05-17T05:24:15.953Z,53.97
2018-05-17T05:26:49.113Z,53.77
2018-05-17T05:29:21.630Z,53.45
2018-05-17T05:31:54.136Z,52.55
2018-05-17T05:34:26.665Z,52.91
2018-05-17T05:36:59.183Z,52.72
2018-05-17T05:39:31.709Z,52.41
2018-05-17T05:42:04.267Z,52.39
2018-05-17T05:44:37.094Z,51.54
2018-05-17T05:47:09.688Z,51.52
2018-05-17T05:49:42.435Z,50.91
2018-05-17T05:52:14.969Z,50.97
2018-05-17T05:54:47.481Z,50.47
2018-05-17T05:57:20.011Z,50.09
2018-05-17T05:59:52.529Z,50.28
2018-05-17T06:02:25.108Z,50.02
2018-05-17T06:04:57.590Z,49.73
2018-05-17T06:07:30.129Z,50.22
2018-05-17T06:10:02.643Z,50.51
2018-05-17T06:12:35.411Z,50.63
2018-05-17T06:15:07.934Z,50.69
2018-05-17T06:17:40.497Z,50.71
2018-05-17T06:20:13.036Z,50.39
2018-05-17T06:22:45.560Z,50.38
2018-05-17T06:25:18.061Z,50.29
2018-05-17T06:27:50.583Z,49.82
2018-05-17T06:30:23.160Z,49.31
2018-05-17T06:32:55.626Z,48.60
2018-05-17T06:35:28.137Z,48.67
2018-05-17T06:38:00.663Z,48.10
2018-05-17T06:40:33.160Z,47.55
2018-05-17T06:43:06.422Z,47.13
2018-05-17T06:45:39.079Z,46.51
2018-05-17T06:48:11.609Z,47.23
2018-05-17T06:50:44.147Z,47.83
2018-05-17T06:53:16.673Z,46.83
2018-05-17T06:55:49.190Z,46.80
2018-05-17T06:58:21.729Z,46.71
2018-05-17T07:00:54.254Z,46.56
2018-05-17T07:03:26.787Z,46.43
2018-05-17T07:05:59.294Z,45.81
2018-05-17T07:08:31.834Z,45.57
2018-05-17T07:11:04.455Z,45.95
2018-05-17T07:13:36.980Z,46.02
2018-05-17T07:16:09.508Z,45.60
2018-05-17T07:18:42.336Z,46.02
2018-05-17T07:21:14.577Z,46.41
2018-05-17T07:23:47.108Z,45.42
2018-05-17T07:26:19.609Z,45.93
2018-05-17T07:28:52.155Z,45.52
2018-05-17T07:31:24.684Z,44.99
2018-05-17T07:33:57.204Z,44.98
2018-05-17T07:36:29.726Z,44.51
2018-05-17T07:39:02.256Z,43.98
2018-05-17T07:41:34.758Z,44.34
2018-05-17T07:44:07.291Z,43.28
2018-05-17T07:46:40.219Z,43.65
2018-05-17T07:49:12.718Z,43.15
2018-05-17T07:51:45.338Z,42.98
2018-05-17T07:54:17.860Z,42.49
2018-05-17T07:56:50.369Z,43.43
2018-05-17T07:59:22.893Z,43.00
2018-05-17T08:01:55.397Z,42.82
2018-05-17T08:04:27.945Z,42.74
2018-05-17T08:07:00.472Z,42.72
2018-05-17T08:09:33.000Z,41.77
2018-05-17T08:12:05.621Z,42.38
2018-05-17T08:14:38.368Z,42.56
2018-05-17T08:17:10.909Z,41.90
2018-05-17T08:19:43.442Z,40.50
2018-05-17T08:22:16.063Z,39.78
2018-05-17T08:24:48.620Z,39.37
2018-05-17T08:27:21.137Z,38.44
2018-05-17T08:29:53.701Z,37.77
2018-05-17T08:32:26.211Z,37.66
2018-05-17T08:34:58.741Z,36.66
2018-05-17T08:37:31.257Z,36.92
2018-05-17T08:40:03.778Z,36.87
2018-05-17T08:42:36.727Z,36.62
2018-05-17T08:45:09.264Z,37.60
2018-05-17T08:47:41.779Z,37.94
2018-05-17T08:50:14.324Z,36.56
2018-05-17T08:52:46.842Z,35.83
2018-05-17T08:55:19.367Z,33.76
2018-05-17T08:57:51.864Z,32.50
2018-05-17T09:00:24.387Z,32.54
2018-05-17T09:02:56.893Z,34.25
2018-05-17T09:05:29.423Z,35.85
2018-05-17T09:08:02.012Z,36.20
2018-05-17T09:10:34.543Z,35.58
2018-05-17T09:13:07.093Z,35.62
2018-05-17T09:15:39.655Z,35.44
2018-05-17T09:18:12.232Z,34.09
2018-05-17T09:20:44.736Z,34.44
2018-05-17T09:23:17.267Z,33.13
2018-05-17T09:25:49.772Z,33.94
2018-05-17T09:28:22.297Z,35.18
2018-05-17T09:30:54.817Z,33.93
2018-05-17T09:33:27.344Z,33.96
2018-05-17T09:35:59.845Z,32.62
2018-05-17T09:38:32.377Z,33.41
2018-05-17T09:41:04.997Z,34.14
2018-05-17T09:43:37.733Z,34.85
2018-05-17T09:46:10.250Z,35.33
2018-05-17T09:48:43.150Z,35.75
2018-05-17T09:51:15.696Z,35.79
2018-05-17T09:53:48.360Z,35.25
2018-05-17T09:56:20.862Z,35.87
2018-05-17T09:58:53.398Z,34.87
2018-05-17T10:01:25.902Z,32.71
2018-05-17T10:03:58.440Z,32.77
2018-05-17T10:06:30.940Z,33.68
2018-05-17T10:09:03.476Z,35.36
2018-05-17T10:11:36.040Z,36.45
2018-05-17T10:14:08.596Z,35.39
2018-05-17T10:19:13.214Z,35.67
2018-05-17T10:21:45.794Z,35.93
2018-05-17T10:24:18.283Z,35.76
2018-05-17T10:26:50.787Z,35.75
2018-05-17T10:29:23.328Z,35.75
2018-05-17T10:31:55.842Z,36.43
2018-05-17T10:34:28.369Z,35.91
2018-05-17T10:37:00.899Z,35.43
2018-05-17T10:39:33.456Z,35.20
2018-05-17T10:42:06.028Z,35.97
2018-05-17T10:44:38.523Z,36.70
2018-05-17T10:47:11.098Z,36.57
2018-05-17T10:49:43.639Z,35.17
2018-05-17T10:52:16.152Z,36.17
2018-05-17T10:54:48.675Z,35.63
2018-05-17T10:57:21.184Z,36.33
2018-05-17T10:59:53.770Z,36.74
2018-05-17T11:02:26.282Z,35.98
2018-05-17T11:04:58.804Z,36.68
2018-05-17T11:07:31.310Z,36.59
2018-05-17T11:10:03.831Z,36.12
2018-05-17T11:12:36.346Z,37.36
2018-05-17T11:15:09.220Z,35.58
2018-05-17T11:17:41.664Z,35.42
2018-05-17T11:20:14.207Z,35.22
2018-05-17T11:22:46.728Z,35.04
2018-05-17T11:25:19.251Z,35.18
2018-05-17T11:27:51.789Z,34.53
2018-05-17T11:30:24.320Z,34.86
2018-05-17T11:32:56.849Z,35.42
2018-05-17T11:35:29.356Z,35.09
2018-05-17T11:38:01.869Z,32.74
2018-05-17T11:40:34.417Z,32.94
2018-05-17T11:43:06.970Z,33.84
2018-05-17T11:45:39.548Z,34.41
2018-05-17T11:48:12.119Z,34.86
2018-05-17T11:50:44.649Z,33.60
2018-05-17T11:53:17.165Z,32.99
2018-05-17T11:55:49.699Z,34.10
2018-05-17T11:58:22.197Z,34.00
2018-05-17T12:00:54.718Z,34.59
2018-05-17T12:03:27.221Z,34.35
2018-05-17T12:05:59.748Z,34.65
2018-05-17T12:08:32.257Z,34.31
2018-05-17T12:11:04.793Z,34.09
2018-05-17T12:13:37.295Z,34.21
2018-05-17T12:16:09.814Z,34.53
2018-05-17T12:18:42.323Z,34.70
2018-05-17T12:21:14.844Z,34.81
2018-05-17T12:23:47.354Z,35.74
2018-05-17T12:26:19.871Z,35.66
2018-05-17T12:28:52.379Z,34.71
2018-05-17T12:31:24.918Z,34.41
2018-05-17T12:33:57.416Z,34.53
2018-05-17T12:36:29.943Z,34.85
2018-05-17T12:39:02.448Z,34.52
2018-05-17T12:41:35.013Z,34.83
2018-05-17T12:44:07.508Z,35.50
2018-05-17T12:46:40.359Z,35.30
2018-05-17T12:49:12.880Z,34.77
2018-05-17T12:51:45.428Z,35.10
2018-05-17T12:54:17.979Z,35.28
2018-05-17T12:56:50.509Z,35.08
2018-05-17T12:59:23.218Z,35.62
2018-05-17T13:01:55.596Z,35.52
2018-05-17T13:04:28.135Z,35.50
2018-05-17T13:07:00.710Z,35.74
2018-05-17T13:09:33.202Z,35.68
2018-05-17T13:12:05.706Z,35.26
2018-05-17T13:14:38.666Z,34.59
2018-05-17T13:17:11.176Z,35.19
2018-05-17T13:19:43.704Z,35.50
2018-05-17T13:22:16.218Z,34.88
2018-05-17T13:24:49.052Z,34.73
2018-05-17T13:27:21.504Z,34.72
2018-05-17T13:29:54.020Z,33.80
2018-05-17T13:32:26.520Z,33.33
2018-05-17T13:34:59.044Z,34.99
2018-05-17T13:37:31.596Z,35.19
2018-05-17T13:40:04.096Z,34.98
2018-05-17T13:42:36.596Z,34.57
2018-05-17T13:45:09.131Z,35.69
2018-05-17T13:47:41.677Z,34.97
2018-05-17T13:50:14.187Z,34.42
2018-05-17T13:52:46.697Z,34.14
2018-05-17T13:55:19.223Z,35.29
2018-05-17T13:57:51.727Z,34.54
2018-05-17T14:00:24.258Z,34.63
2018-05-17T14:02:56.787Z,36.04
2018-05-17T14:05:29.306Z,35.29
2018-05-17T14:08:01.803Z,35.25
2018-05-17T14:10:34.382Z,36.19
2018-05-17T14:13:06.895Z,36.73
2018-05-17T14:15:39.429Z,36.94
2018-05-17T14:18:11.976Z,37.03
2018-05-17T14:20:44.496Z,37.50
2018-05-17T14:23:17.003Z,37.94
2018-05-17T14:25:49.539Z,38.06
2018-05-17T14:28:22.051Z,39.17
2018-05-17T14:30:54.662Z,39.45
2018-05-17T14:36:05.944Z,39.80
2018-05-17T14:38:38.470Z,39.86
2018-05-17T14:41:11.010Z,40.63
2018-05-17T14:43:43.514Z,40.88
2018-05-17T14:46:16.042Z,41.37
2018-05-17T14:48:48.548Z,41.43
2018-05-17T14:51:21.081Z,42.13
2018-05-17T14:53:53.869Z,42.71
2018-05-17T14:56:26.423Z,42.23
2018-05-17T14:58:58.946Z,42.20
2018-05-17T15:01:31.465Z,42.21
2018-05-17T15:04:03.965Z,42.96
2018-05-17T15:06:36.502Z,43.74
2018-05-17T15:09:09.015Z,44.02
2018-05-17T15:11:41.541Z,44.32
2018-05-17T15:14:14.090Z,44.06
2018-05-17T15:16:46.624Z,44.32
2018-05-17T15:19:19.153Z,44.29
2018-05-17T15:21:51.673Z,45.41
2018-05-17T15:24:24.182Z,45.50
2018-05-17T15:26:56.710Z,45.84
2018-05-17T15:29:29.213Z,45.49
2018-05-17T15:32:01.764Z,45.71
2018-05-17T15:34:34.273Z,46.50
2018-05-17T15:37:06.878Z,46.45
2018-05-17T15:39:39.418Z,46.56
2018-05-17T15:42:11.941Z,46.49
2018-05-17T15:44:44.449Z,46.49
2018-05-17T15:47:16.967Z,46.86
2018-05-17T15:49:49.476Z,46.77
2018-05-17T15:52:22.153Z,47.08
2018-05-17T15:54:54.669Z,46.93
2018-05-17T15:57:27.207Z,47.08
2018-05-17T16:00:00.682Z,47.11
2018-05-17T16:02:33.200Z,47.55
2018-05-17T16:05:05.704Z,47.19
2018-05-17T16:07:38.240Z,47.32
2018-05-17T16:10:10.741Z,47.88
2018-05-17T16:12:43.268Z,48.15
2018-05-17T16:15:15.978Z,48.49
2018-05-17T16:17:48.308Z,48.46
2018-05-17T16:20:20.811Z,48.41
2018-05-17T16:22:53.334Z,48.52
2018-05-17T16:25:25.850Z,48.63
2018-05-17T16:27:58.379Z,48.67
2018-05-17T16:30:30.925Z,48.79
2018-05-17T16:33:03.436Z,48.49
2018-05-17T16:35:35.967Z,48.28
2018-05-17T16:38:08.480Z,48.35
2018-05-17T16:40:41.004Z,48.96
2018-05-17T16:43:13.517Z,48.76
2018-05-17T16:45:46.041Z,48.77
2018-05-17T16:48:18.591Z,49.16
2018-05-17T16:50:51.122Z,49.10
2018-05-17T16:53:23.706Z,49.43
2018-05-17T16:55:56.199Z,49.34
2018-05-17T16:58:28.715Z,49.28
2018-05-17T17:01:01.246Z,49.25
2018-05-17T17:03:33.752Z,49.69
2018-05-17T17:06:06.275Z,49.53
2018-05-17T17:08:38.790Z,49.67
2018-05-17T17:11:11.320Z,49.55
2018-05-17T17:13:43.827Z,49.60
2018-05-17T17:16:16.347Z,49.93
2018-05-17T17:18:48.845Z,50.04
2018-05-17T17:21:21.384Z,50.21
2018-05-17T17:23:53.913Z,50.11
2018-05-17T17:26:26.478Z,50.22
2018-05-17T17:28:58.949Z,50.63
2018-05-17T17:31:31.487Z,50.65
2018-05-17T17:34:03.991Z,50.50
2018-05-17T17:36:36.616Z,50.25
2018-05-17T17:39:09.081Z,50.14
2018-05-17T17:41:41.666Z,50.34
2018-05-17T17:44:14.168Z,50.21
2018-05-17T17:46:46.721Z,50.54
2018-05-17T17:49:19.224Z,50.44
2018-05-17T17:51:51.751Z,50.55
2018-05-17T17:54:24.253Z,50.63
2018-05-17T17:56:59.015Z,50.55
2018-05-17T17:59:32.045Z,50.39
2018-05-17T18:02:04.583Z,50.65
2018-05-17T18:04:37.132Z,50.72
2018-05-17T18:07:09.801Z,51.31
2018-05-17T18:09:43.431Z,50.90
2018-05-17T18:12:16.101Z,51.74
2018-05-17T18:14:48.611Z,51.24
2018-05-17T18:17:21.143Z,51.13
2018-05-17T18:19:53.648Z,51.45
2018-05-17T18:22:26.175Z,51.26
2018-05-17T18:24:58.698Z,51.58
2018-05-17T18:27:31.222Z,51.36
2018-05-17T18:30:03.731Z,51.65
2018-05-17T18:32:36.301Z,51.39
2018-05-17T18:35:08.804Z,51.33
2018-05-17T18:37:41.394Z,51.63
2018-05-17T18:40:14.234Z,51.40
2018-05-17T18:42:46.769Z,51.49
2018-05-17T18:45:19.307Z,51.78
2018-05-17T18:47:51.825Z,51.73
2018-05-17T18:50:24.337Z,51.44
2018-05-17T18:52:56.867Z,51.50
2018-05-17T18:55:29.366Z,52.36
2018-05-17T18:58:01.895Z,52.03
2018-05-17T19:00:34.441Z,51.93
2018-05-17T19:03:07.182Z,52.22
2018-05-17T19:05:40.739Z,52.69
2018-05-17T19:08:13.269Z,52.69
2018-05-17T19:10:45.779Z,52.70
2018-05-17T19:13:18.436Z,52.42
2018-05-17T19:15:50.936Z,52.26
2018-05-17T19:18:23.456Z,52.28
2018-05-17T19:20:55.965Z,52.26
2018-05-17T19:23:28.506Z,52.70
2018-05-17T19:26:01.016Z,52.83
2018-05-17T19:28:33.546Z,52.61
2018-05-17T19:31:06.525Z,52.87
2018-05-17T19:33:39.064Z,53.00
2018-05-17T19:36:11.622Z,53.07
2018-05-17T19:38:44.149Z,53.15
2018-05-17T19:41:16.680Z,53.46
2018-05-17T19:43:49.221Z,53.24
2018-05-17T19:46:21.739Z,53.38
2018-05-17T19:48:54.262Z,53.47
2018-05-17T19:51:26.784Z,54.24
2018-05-17T19:53:59.308Z,54.19
2018-05-17T19:56:31.834Z,54.02
2018-05-17T19:59:05.515Z,54.23
2018-05-17T20:01:38.166Z,54.38
2018-05-17T20:04:10.965Z,54.28
2018-05-17T20:06:43.496Z,54.31
2018-05-17T20:09:16.000Z,54.11
2018-05-17T20:11:48.531Z,54.10
2018-05-17T20:14:21.037Z,54.32
2018-05-17T20:16:53.572Z,54.14
2018-05-17T20:19:26.074Z,54.06
2018-05-17T20:21:58.603Z,53.96
2018-05-17T20:24:31.121Z,53.90
2018-05-17T20:27:03.650Z,54.46
2018-05-17T20:29:36.870Z,54.30
2018-05-17T20:32:09.469Z,54.32
2018-05-17T20:34:41.976Z,54.58
2018-05-17T20:37:14.496Z,54.27
2018-05-17T20:39:47.005Z,54.51
2018-05-17T20:42:19.566Z,54.80
2018-05-17T20:44:52.062Z,54.77
2018-05-17T20:47:24.588Z,55.09
2018-05-17T20:49:57.086Z,55.17
2018-05-17T20:52:29.616Z,55.15
2018-05-17T20:55:02.123Z,55.24
2018-05-17T20:57:34.644Z,55.48
2018-05-17T21:00:07.144Z,55.27
2018-05-17T21:02:39.670Z,55.37
2018-05-17T21:05:12.221Z,55.21
2018-05-17T21:07:44.813Z,55.34
2018-05-17T21:10:17.442Z,55.69
2018-05-17T21:12:50.028Z,55.55
2018-05-17T21:15:22.501Z,55.75
2018-05-17T21:17:55.048Z,55.78
2018-05-17T21:20:27.544Z,55.77
2018-05-17T21:23:00.073Z,55.76
2018-05-17T21:25:32.594Z,55.94
2018-05-17T21:28:05.487Z,55.97
2018-05-17T21:30:38.005Z,55.68
2018-05-17T21:33:10.556Z,56.50
2018-05-17T21:35:43.076Z,56.50
2018-05-17T21:38:15.613Z,56.16
2018-05-17T21:40:48.120Z,56.19
2018-05-17T21:43:20.647Z,56.29
2018-05-17T21:45:53.155Z,56.58
2018-05-17T21:48:25.694Z,56.87
2018-05-17T21:50:58.196Z,56.78
2018-05-17T21:53:30.736Z,56.66
2018-05-17T21:56:03.250Z,56.87
2018-05-17T21:58:36.521Z,56.61
2018-05-17T22:01:09.061Z,56.88
2018-05-17T22:03:41.596Z,56.92
2018-05-17T22:06:14.110Z,56.86
2018-05-17T22:08:55.621Z,56.65
2018-05-17T22:11:28.147Z,56.80
2018-05-17T22:14:00.690Z,57.01
2018-05-17T22:16:33.210Z,56.79
2018-05-17T22:19:06.499Z,56.74
2018-05-17T22:21:39.021Z,57.13
2018-05-17T22:24:11.590Z,56.87
2018-05-17T22:29:22.895Z,56.95
2018-05-17T22:31:55.410Z,57.31
2018-05-17T22:34:27.957Z,57.19
2018-05-17T22:37:00.533Z,57.26
2018-05-17T22:39:33.136Z,57.26
2018-05-17T22:42:06.827Z,57.49
2018-05-17T22:44:39.456Z,57.58
2018-05-17T22:47:12.042Z,57.58
2018-05-17T22:49:44.640Z,57.69
2018-05-17T22:52:17.176Z,57.83
2018-05-17T22:54:49.717Z,57.89
2018-05-17T22:57:34.158Z,57.88
2018-05-17T23:00:07.468Z,57.81
2018-05-17T23:02:40.104Z,57.70
2018-05-17T23:05:12.609Z,57.77
2018-05-17T23:07:45.154Z,57.88
2018-05-17T23:10:17.693Z,58.06
2018-05-17T23:12:51.079Z,57.91
2018-05-17T23:15:23.600Z,58.26
2018-05-17T23:17:56.138Z,58.24
2018-05-17T23:20:28.644Z,58.24
2018-05-17T23:23:01.172Z,58.59
2018-05-17T23:25:33.709Z,58.64
2018-05-17T23:28:07.086Z,59.06
2018-05-17T23:30:39.691Z,59.06
2018-05-17T23:33:12.264Z,58.98
2018-05-17T23:35:44.789Z,59.16
2018-05-17T23:38:17.339Z,59.54
2018-05-17T23:43:56.800Z,58.98
2018-05-17T23:46:29.364Z,59.07
2018-05-17T23:49:01.896Z,59.02
2018-05-17T23:51:34.417Z,59.12
2018-05-17T23:54:07.379Z,58.85
2018-05-17T23:56:40.355Z,58.76
2018-05-17T23:59:12.927Z,58.83
